Latest Coastal Weather Observations for Cape Naturaliste

IDW60701

Issued at 1:02 am WST Friday 4 September 2015 (issued every 10 minutes, with the page automatically refreshed every 10 minutes)

About coastal observations | Map of coastal stations | Coastal observations for WA | Marine services | Other Formats
Station Details ID: 009519 Name: CAPE NATURALISTE Lat: -33.54 Lon: 115.02 Height: 109.0 m
Data from the previous 72 hours. | See also: Recent months at Cape Naturaliste
Date/Time
WST
Temp

°C
Wind Pressure Rain
since 9am
mm
Weather Cloud Vis
km
Sea
Height
m
Swell
Dir
 
Speed
knots
Gust
knots
hPa Trend Height
m
Period
s
Dir
04/01:00am 10.8 SE 3 4 1017.0 - 0.0 - - - - - - -
04/12:30am 9.9 SE 6 7 1017.5 - 0.0 - - - - - - -
04/12:00am 9.9 SE 7 8 1017.8 - 0.0 - - - - - - -
 
Date/Time
WST
Temp

°C
Wind Pressure Rain
since 9am
mm
Weather Cloud Vis
km
Sea
Height
m
Swell
Dir
 
Speed
knots
Gust
knots
hPa Trend Height
m
Period
s
Dir
03/11:30pm 10.2 SE 9 10 1018.0 - 0.0 - - - - - - -
03/11:00pm 10.2 SE 8 9 1018.4 - 0.0 - - - - - - -
03/10:30pm 10.3 SE 8 9 1018.8 - 0.0 - - - - - - -
03/10:00pm 10.1 SSE 8 8 1019.2 - 0.0 - - - - - - -
03/09:30pm 10.1 SSE 8 9 1019.6 - 0.0 - - - - - - -
03/09:00pm 10.5 SSE 6 7 1019.8 - 0.0 - - - - - - -
03/08:30pm 10.5 SSE 7 7 1020.0 - 0.0 - - - - - - -
03/08:00pm 10.9 SE 7 8 1020.0 - 0.0 - - - - - - -
03/07:30pm 11.2 SE 7 8 1020.0 - 0.0 - - - - - - -
03/07:00pm 11.3 SE 8 9 1019.9 - 0.0 - - - - - - -
03/06:30pm 11.1 SE 8 9 1020.0 - 0.0 - - - - - - -
03/06:00pm 11.5 SE 7 8 1020.0 - 0.0 - - - - - - -
03/05:30pm 12.9 SE 6 7 1020.0 - 0.0 - - - - - - -
03/05:00pm 13.7 ESE 6 7 1020.1 - 0.0 - - - - - - -
03/04:30pm 14.2 ESE 4 5 1020.7 - 0.0 - - - - - - -
03/04:00pm 15.5 E 7 8 1020.9 - 0.0 - - - - - - -
03/03:30pm 15.7 E 7 9 1021.1 - 0.0 - - - - - - -
03/03:00pm 15.8 E 7 9 1021.1 - 0.0 - - - - - - -
03/02:30pm 16.0 E 7 11 1021.2 - 0.0 - - - - - - -
03/02:00pm 16.5 NE 7 10 1021.7 - 0.0 - - - - - - -
03/01:30pm 15.6 ENE 8 11 1022.2 - 0.0 - - - - - - -
03/01:00pm 15.9 ENE 8 11 1022.7 - 0.0 - - - - - - -
03/12:30pm 15.7 E 8 11 1023.1 - 0.0 - - - - - - -
03/12:00pm 14.9 E 8 10 1023.7 - 0.0 - - - - - - -
03/11:30am 14.2 E 9 12 1024.0 - 0.0 - - - - - - -
03/11:00am 14.1 E 11 14 1024.2 - 0.0 - - - - - - -
03/10:30am 13.7 E 11 14 1024.4 - 0.0 - - - - - - -
03/10:00am 12.6 ENE 11 14 1024.7 - 0.0 - - - - - - -
03/09:30am 12.0 ENE 14 17 1024.7 - 0.0 - - - - - - -
03/09:00am 11.7 ENE 16 20 1024.6 - 0.0 - - - - - - -
03/08:30am 11.4 ENE 17 22 1024.4 - 0.0 - - - - - - -
03/08:00am 11.1 ENE 17 22 1024.3 - 0.0 - - - - - - -
03/07:30am 11.0 ENE 15 21 1024.4 - 0.0 - - - - - - -
03/07:00am 10.7 E 10 17 1024.6 - 0.0 - - - - - - -
03/06:30am 10.0 SE 9 12 1024.4 - 0.0 - - - - - - -
03/06:00am 10.9 ESE 11 18 1024.6 - 0.0 - - - - - - -
03/05:30am 11.0 E 11 16 1024.6 - 0.0 - - - - - - -
03/05:00am 11.0 E 13 18 1024.3 - 0.0 - - - - - - -
03/04:30am 11.2 E 12 16 1024.3 - 0.0 - - - - - - -
03/04:00am 11.2 E 14 19 1024.1 - 0.0 - - - - - - -
03/03:30am 11.2 E 13 18 1024.2 - 0.0 - - - - - - -
03/03:00am 11.5 E 14 19 1024.2 - 0.0 - - - - - - -
03/02:30am 11.7 E 13 16 1024.7 - 0.0 - - - - - - -
03/02:00am 11.5 E 11 15 1025.0 - 0.0 - - - - - - -
03/01:30am 10.6 SE 7 9 1025.5 - 0.0 - - - - - - -
03/01:00am 10.8 SE 7 9 1025.5 - 0.0 - - - - - - -
03/12:30am 10.9 SE 9 11 1025.5 - 0.0 - - - - - - -
03/12:00am 10.6 SE 9 11 1025.6 - 0.0 - - - - - - -
 
Date/Time
WST
Temp

°C
Wind Pressure Rain
since 9am
mm
Weather Cloud Vis
km
Sea
Height
m
Swell
Dir
 
Speed
knots
Gust
knots
hPa Trend Height
m
Period
s
Dir
02/11:30pm 10.5 SE 8 10 1026.0 - 0.0 - - - - - - -
02/11:00pm 10.6 SE 9 11 1026.2 - 0.0 - - - - - - -
02/10:30pm 10.8 SE 9 12 1026.3 - 0.0 - - - - - - -
02/10:00pm 10.9 SSE 10 14 1026.3 - 0.0 - - - - - - -
02/09:30pm 11.1 SSE 9 13 1026.5 - 0.0 - - - - - - -
02/09:00pm 11.2 SSE 9 12 1026.3 - 0.0 - - - - - - -
02/08:30pm 11.3 SSE 9 11 1026.3 - 0.0 - - - - - - -
02/08:00pm 11.2 S 8 11 1026.3 - 0.0 - - - - - - -
02/07:30pm 11.0 S 7 8 1026.2 - 0.0 - - - - - - -
02/07:00pm 11.0 SSW 4 5 1026.1 - 0.0 - - - - - - -
02/06:30pm 11.3 SW 3 4 1025.8 - 0.0 - - - - - - -
02/06:00pm 11.7 NW 4 5 1025.7 - 0.0 - - - - - - -
02/05:30pm 12.2 NNW 3 4 1025.6 - 0.0 - - - - - - -
02/05:00pm 13.4 NNW 5 6 1025.8 - 0.0 - - - - - - -
02/04:30pm 14.5 W 5 7 1025.7 - 0.0 - - - - - - -
02/04:00pm 14.0 NNW 5 6 1025.9 - 0.0 - - - - - - -
02/03:30pm 14.0 N 5 6 1026.0 - 0.0 - - - - - - -
02/03:00pm 13.8 NNE 7 9 1026.1 - 0.0 - - - - - - -
02/02:30pm 15.5 N 7 9 1025.8 - 0.0 - - - - - - -
02/02:00pm 15.4 NE 9 12 1025.8 - 0.0 - - - - - - -
02/01:30pm 15.5 ENE 9 12 1026.0 - 0.0 - - - - - - -
02/01:00pm 15.0 NE 9 12 1026.3 - 0.0 - - - - - - -
02/12:30pm 14.8 NE 10 13 1026.7 - 0.0 - - - - - - -
02/12:00pm 15.4 NE 8 11 1027.1 - 0.0 - - - - - - -
02/11:30am 14.6 ENE 9 12 1027.5 - 0.0 - - - - - - -
02/11:00am 14.2 E 9 13 1027.9 - 0.0 - - - - - - -
02/10:30am 13.7 E 9 12 1028.0 - 0.0 - - - - - - -
02/10:00am 13.5 E 9 11 1028.1 - 0.0 - - - - - - -
02/09:30am 13.5 ESE 7 10 1028.2 - 0.0 - - - - - - -
02/09:00am 12.8 E 8 12 1028.4 - 0.0 - - - - - - -
02/08:30am 12.5 E 7 9 1028.4 - 0.0 - - - - - - -
02/08:00am 11.0 ESE 5 7 1028.2 - 0.0 - - - - - - -
02/07:30am 8.5 SE 7 8 1027.9 - 0.0 - - - - - - -
02/07:00am 7.5 SE 6 8 1027.4 - 0.0 - - - - - - -
02/06:30am 7.3 SE 6 7 1027.3 - 0.0 - - - - - - -
02/06:00am 7.0 SE 5 6 1027.1 - 0.0 - - - - - - -
02/05:30am 7.2 SE 5 6 1026.9 - 0.0 - - - - - - -
02/05:00am 6.7 SE 5 5 1026.7 - 0.0 - - - - - - -
02/04:30am 5.9 SE 6 7 1026.5 - 0.0 - - - - - - -
02/04:00am 5.8 SE 7 8 1026.3 - 0.0 - - - - - - -
02/03:30am 6.2 SE 6 7 1026.4 - 0.0 - - - - - - -
02/03:00am 5.8 SE 7 7 1026.4 - 0.0 - - - - - - -
02/02:30am 6.0 SE 6 7 1026.4 - 0.0 - - - - - - -
02/02:00am 6.0 SE 7 7 1026.6 - 0.0 - - - - - - -
02/01:30am 6.0 SE 7 7 1026.6 - 0.0 - - - - - - -
02/01:00am 6.2 SE 6 7 1026.9 - 0.0 - - - - - - -
02/12:30am 6.2 SE 7 8 1026.9 - 0.0 - - - - - - -
02/12:00am 6.5 SE 7 9 1026.7 - 0.0 - - - - - - -
 
Date/Time
WST
Temp

°C
Wind Pressure Rain
since 9am
mm
Weather Cloud Vis
km
Sea
Height
m
Swell
Dir
 
Speed
knots
Gust
knots
hPa Trend Height
m
Period
s
Dir
01/11:30pm 6.7 SSE 8 9 1026.8 - 0.0 - - - - - - -
01/11:00pm 6.7 SE 8 9 1026.9 - 0.0 - - - - - - -
01/10:30pm 6.9 SE 8 10 1027.0 - 0.0 - - - - - - -
01/10:00pm 7.3 SSE 8 10 1026.8 - 0.0 - - - - - - -
01/09:30pm 7.5 SSE 9 11 1026.7 - 0.0 - - - - - - -
01/09:00pm 7.7 SSE 9 12 1026.5 - 0.0 - - - - - - -
01/08:30pm 7.9 SSE 9 12 1026.1 - 0.0 - - - - - - -
01/08:00pm 8.1 SSE 9 11 1025.8 - 0.0 - - - - - - -
01/07:30pm 8.7 SSE 12 15 1025.3 - 0.0 - - - - - - -
01/07:00pm 8.9 SSE 12 16 1025.2 - 0.0 - - - - - - -
01/06:30pm 9.4 SSE 12 15 1025.1 - 0.0 - - - - - - -
01/06:00pm 9.7 SSE 9 13 1024.9 - 0.0 - - - - - - -
01/05:30pm 10.4 SSE 11 16 1024.6 - 0.0 - - - - - - -
01/05:00pm 12.0 S 16 21 1024.3 - 0.0 - - - - - - -
01/04:30pm 13.1 S 14 20 1023.9 - 0.0 - - - - - - -
01/04:00pm 13.0 S 11 18 1023.9 - 0.0 - - - - - - -
01/03:30pm 12.7 SSE 11 17 1023.7 - 0.0 - - - - - - -
01/03:00pm 14.6 S 14 21 1023.6 - 0.0 - - - - - - -
01/02:30pm 13.6 SSW 20 28 1023.2 - 0.0 - - - - - - -
01/02:05pm 14.2 S 15 25 1023.2 - 0.0 - - - - - - -
01/02:00pm 14.6 S 16 24 1023.2 - 0.0 - - - - - - -
01/01:30pm 12.9 SSW 18 27 1023.0 - 0.0 - - - - - - -
01/01:00pm 14.0 S 14 22 1023.5 - 0.0 - - - - - - -
01/12:30pm 11.7 S 19 28 1023.6 - 0.0 - - - - - - -
01/12:21pm 12.9 SSW 15 25 1023.7 - 0.0 - - - - - - -
01/12:00pm 12.0 SSW 16 22 1023.9 - 0.0 - - - - - - -
01/11:32am 13.2 SSW 15 26 1023.9 - 0.0 - - - - - - -
01/11:30am 13.8 SSW 15 22 1023.9 - 0.0 - - - - - - -
01/11:05am 11.3 S 19 29 1024.0 - 0.0 - - - - - - -
01/11:00am 11.5 SSW 20 29 1023.9 - 0.0 - - - - - - -
01/10:54am 12.3 SSW 15 25 1023.8 - 0.0 - - - - - - -
01/10:30am 12.5 S 12 17 1024.0 - 0.0 - - - - - - -
01/10:00am 11.2 SSW 17 29 1023.8 - 0.0 - - - - - - -
01/09:58am 11.9 SSW 15 26 1023.8 - 0.0 - - - - - - -
01/09:30am 12.7 S 14 19 1023.9 - 0.0 - - - - - - -
01/09:00am 12.0 S 13 22 1023.5 - 5.4 - - - - - - -
01/08:30am 10.2 S 15 22 1023.1 - 5.4 - - - - - - -
01/08:06am 10.0 S 16 26 1022.8 - 5.4 - - - - - - -
01/08:00am 10.2 S 18 26 1022.8 - 5.4 - - - - - - -
01/07:30am 8.6 S 15 20 1022.4 - 5.4 - - - - - - -
01/07:00am 7.7 S 15 20 1021.9 - 5.2 - - - - - - -
01/06:30am 7.4 S 18 24 1021.4 - 5.2 - - - - - - -
01/06:00am 7.7 S 16 23 1021.1 - 5.0 - - - - - - -
01/05:30am 7.3 SSE 13 17 1020.9 - 5.0 - - - - - - -
01/05:00am 7.2 S 12 20 1020.7 - 5.0 - - - - - - -
01/04:53am 7.4 S 16 26 1020.6 - 5.0 - - - - - - -
01/04:30am 6.8 S 13 18 1020.6 - 5.0 - - - - - - -
01/04:04am 9.0 SSW 19 33 1019.9 - 4.8 - - - - - - -
01/04:00am 8.7 S 17 22 1020.0 - 4.6 - - - - - - -
01/03:30am 7.5 S 14 19 1019.9 - 4.6 - - - - - - -
01/03:00am 7.7 S 15 23 1019.9 - 4.6 - - - - - - -
01/02:33am 8.2 S 21 31 1020.0 - 4.6 - - - - - - -
01/02:30am 8.1 S 23 31 1020.0 - 4.6 - - - - - - -
01/02:13am 8.9 SSW 21 31 1019.8 - 4.6 - - - - - - -
01/02:00am 8.5 SSW 18 27 1019.9 - 4.6 - - - - - - -
01/01:30am 7.9 SSW 17 27 1020.2 - 4.6 - - - - - - -

Other Formats:

Comma delimited format used in spreadsheet applications
http://www.bom.gov.au/fwo/IDW60701/IDW60701.94600.axf

JavaScript Object Notation format (JSON) in row-major order
http://www.bom.gov.au/fwo/IDW60701/IDW60701.94600.json